sensor_id;sensor_type;location;lat;lon;timestamp;temperature;humidity
68439;SHT31;55421;51.600;5.718;2023-09-30T00:01:41;14.05;81.34
68439;SHT31;55421;51.600;5.718;2023-09-30T00:04:07;14.05;81.44
68439;SHT31;55421;51.600;5.718;2023-09-30T00:06:35;14.04;81.50
68439;SHT31;55421;51.600;5.718;2023-09-30T00:09:02;14.03;81.50
68439;SHT31;55421;51.600;5.718;2023-09-30T00:11:29;14.02;81.53
68439;SHT31;55421;51.600;5.718;2023-09-30T00:13:56;14.02;81.61
68439;SHT31;55421;51.600;5.718;2023-09-30T00:16:22;14.01;81.69
68439;SHT31;55421;51.600;5.718;2023-09-30T00:18:48;14.01;81.71
68439;SHT31;55421;51.600;5.718;2023-09-30T00:21:15;14.01;81.71
68439;SHT31;55421;51.600;5.718;2023-09-30T00:23:42;14.02;81.75
68439;SHT31;55421;51.600;5.718;2023-09-30T00:26:08;14.01;81.80
68439;SHT31;55421;51.600;5.718;2023-09-30T00:28:35;14.00;81.86
68439;SHT31;55421;51.600;5.718;2023-09-30T00:31:05;13.97;81.99
68439;SHT31;55421;51.600;5.718;2023-09-30T00:33:36;13.95;82.08
68439;SHT31;55421;51.600;5.718;2023-09-30T00:36:10;13.95;82.11
68439;SHT31;55421;51.600;5.718;2023-09-30T00:38:38;13.93;82.19
68439;SHT31;55421;51.600;5.718;2023-09-30T00:41:04;13.93;82.24
68439;SHT31;55421;51.600;5.718;2023-09-30T00:43:31;13.92;82.30
68439;SHT31;55421;51.600;5.718;2023-09-30T00:46:02;13.91;82.30
68439;SHT31;55421;51.600;5.718;2023-09-30T00:48:36;13.90;82.38
68439;SHT31;55421;51.600;5.718;2023-09-30T00:51:04;13.89;82.40
68439;SHT31;55421;51.600;5.718;2023-09-30T00:53:32;13.88;82.50
68439;SHT31;55421;51.600;5.718;2023-09-30T00:55:59;13.87;82.50
68439;SHT31;55421;51.600;5.718;2023-09-30T00:58:26;13.89;82.46
68439;SHT31;55421;51.600;5.718;2023-09-30T01:00:56;13.88;82.38
68439;SHT31;55421;51.600;5.718;2023-09-30T01:03:24;13.84;82.32
68439;SHT31;55421;51.600;5.718;2023-09-30T01:05:51;13.81;82.31
68439;SHT31;55421;51.600;5.718;2023-09-30T01:08:18;13.78;82.40
68439;SHT31;55421;51.600;5.718;2023-09-30T01:10:46;13.75;82.46
68439;SHT31;55421;51.600;5.718;2023-09-30T01:13:14;13.74;82.50
68439;SHT31;55421;51.600;5.718;2023-09-30T01:15:40;13.73;82.52
68439;SHT31;55421;51.600;5.718;2023-09-30T01:18:07;13.70;82.60
68439;SHT31;55421;51.600;5.718;2023-09-30T01:20:33;13.70;82.60
68439;SHT31;55421;51.600;5.718;2023-09-30T01:23:00;13.70;82.64
68439;SHT31;55421;51.600;5.718;2023-09-30T01:25:29;13.70;82.70
68439;SHT31;55421;51.600;5.718;2023-09-30T01:27:56;13.69;82.69
68439;SHT31;55421;51.600;5.718;2023-09-30T01:30:26;13.69;82.69
68439;SHT31;55421;51.600;5.718;2023-09-30T01:32:52;13.68;82.73
68439;SHT31;55421;51.600;5.718;2023-09-30T01:35:19;13.66;82.72
68439;SHT31;55421;51.600;5.718;2023-09-30T01:37:46;13.65;82.70
68439;SHT31;55421;51.600;5.718;2023-09-30T01:40:12;13.64;82.70
68439;SHT31;55421;51.600;5.718;2023-09-30T01:42:39;13.63;82.70
68439;SHT31;55421;51.600;5.718;2023-09-30T01:45:05;13.61;82.70
68439;SHT31;55421;51.600;5.718;2023-09-30T01:47:33;13.59;82.58
68439;SHT31;55421;51.600;5.718;2023-09-30T01:50:00;13.55;82.51
68439;SHT31;55421;51.600;5.718;2023-09-30T01:52:26;13.51;82.43
68439;SHT31;55421;51.600;5.718;2023-09-30T01:54:53;13.48;82.50
68439;SHT31;55421;51.600;5.718;2023-09-30T01:57:20;13.44;82.50
68439;SHT31;55421;51.600;5.718;2023-09-30T01:59:46;13.42;82.61
68439;SHT31;55421;51.600;5.718;2023-09-30T02:02:13;13.40;82.65
68439;SHT31;55421;51.600;5.718;2023-09-30T02:04:39;13.37;82.68
68439;SHT31;55421;51.600;5.718;2023-09-30T02:07:06;13.35;82.70
68439;SHT31;55421;51.600;5.718;2023-09-30T02:09:32;13.34;82.70
68439;SHT31;55421;51.600;5.718;2023-09-30T02:11:59;13.31;82.62
68439;SHT31;55421;51.600;5.718;2023-09-30T02:14:25;13.28;82.59
68439;SHT31;55421;51.600;5.718;2023-09-30T02:16:52;13.25;82.68
68439;SHT31;55421;51.600;5.718;2023-09-30T02:19:19;13.23;82.77
68439;SHT31;55421;51.600;5.718;2023-09-30T02:21:46;13.23;82.87
68439;SHT31;55421;51.600;5.718;2023-09-30T02:24:12;13.22;82.93
68439;SHT31;55421;51.600;5.718;2023-09-30T02:26:39;13.20;83.05
68439;SHT31;55421;51.600;5.718;2023-09-30T02:29:05;13.22;83.13
68439;SHT31;55421;51.600;5.718;2023-09-30T02:31:34;13.21;83.19
68439;SHT31;55421;51.600;5.718;2023-09-30T02:34:01;13.22;83.17
68439;SHT31;55421;51.600;5.718;2023-09-30T02:36:29;13.20;83.10
68439;SHT31;55421;51.600;5.718;2023-09-30T02:38:55;13.19;83.19
68439;SHT31;55421;51.600;5.718;2023-09-30T02:41:22;13.20;83.26
68439;SHT31;55421;51.600;5.718;2023-09-30T02:43:48;13.19;83.24
68439;SHT31;55421;51.600;5.718;2023-09-30T02:46:15;13.18;83.20
68439;SHT31;55421;51.600;5.718;2023-09-30T02:48:42;13.17;83.22
68439;SHT31;55421;51.600;5.718;2023-09-30T02:51:10;13.15;83.27
68439;SHT31;55421;51.600;5.718;2023-09-30T02:53:37;13.15;83.30
68439;SHT31;55421;51.600;5.718;2023-09-30T02:56:04;13.14;83.35
68439;SHT31;55421;51.600;5.718;2023-09-30T02:58:31;13.13;83.30
68439;SHT31;55421;51.600;5.718;2023-09-30T03:00:57;13.12;83.29
68439;SHT31;55421;51.600;5.718;2023-09-30T03:03:25;13.12;83.30
68439;SHT31;55421;51.600;5.718;2023-09-30T03:05:52;13.11;83.30
68439;SHT31;55421;51.600;5.718;2023-09-30T03:08:20;13.10;83.33
68439;SHT31;55421;51.600;5.718;2023-09-30T03:10:48;13.09;83.39
68439;SHT31;55421;51.600;5.718;2023-09-30T03:13:14;13.08;83.41
68439;SHT31;55421;51.600;5.718;2023-09-30T03:15:41;13.07;83.40
68439;SHT31;55421;51.600;5.718;2023-09-30T03:18:07;13.07;83.47
68439;SHT31;55421;51.600;5.718;2023-09-30T03:20:34;13.07;83.53
68439;SHT31;55421;51.600;5.718;2023-09-30T03:23:00;13.07;83.59
68439;SHT31;55421;51.600;5.718;2023-09-30T03:25:28;13.06;83.60
68439;SHT31;55421;51.600;5.718;2023-09-30T03:27:56;13.05;83.63
68439;SHT31;55421;51.600;5.718;2023-09-30T03:30:23;13.03;83.66
68439;SHT31;55421;51.600;5.718;2023-09-30T03:32:50;13.01;83.70
68439;SHT31;55421;51.600;5.718;2023-09-30T03:35:17;13.01;83.69
68439;SHT31;55421;51.600;5.718;2023-09-30T03:37:43;13.00;83.69
68439;SHT31;55421;51.600;5.718;2023-09-30T03:40:14;13.00;83.70
68439;SHT31;55421;51.600;5.718;2023-09-30T03:42:46;12.98;83.70
68439;SHT31;55421;51.600;5.718;2023-09-30T03:45:16;12.97;83.70
68439;SHT31;55421;51.600;5.718;2023-09-30T03:47:43;12.97;83.80
68439;SHT31;55421;51.600;5.718;2023-09-30T03:50:10;12.96;83.80
68439;SHT31;55421;51.600;5.718;2023-09-30T03:52:41;12.94;83.77
68439;SHT31;55421;51.600;5.718;2023-09-30T03:55:11;12.92;83.80
68439;SHT31;55421;51.600;5.718;2023-09-30T03:57:38;12.90;83.90
68439;SHT31;55421;51.600;5.718;2023-09-30T04:00:06;12.89;83.90
68439;SHT31;55421;51.600;5.718;2023-09-30T04:02:37;12.88;83.89
68439;SHT31;55421;51.600;5.718;2023-09-30T04:05:04;12.86;83.90
68439;SHT31;55421;51.600;5.718;2023-09-30T04:07:31;12.86;83.97
68439;SHT31;55421;51.600;5.718;2023-09-30T04:09:59;12.86;84.00
68439;SHT31;55421;51.600;5.718;2023-09-30T04:12:27;12.84;84.00
68439;SHT31;55421;51.600;5.718;2023-09-30T04:14:54;12.83;84.00
68439;SHT31;55421;51.600;5.718;2023-09-30T04:17:21;12.81;84.00
68439;SHT31;55421;51.600;5.718;2023-09-30T04:19:49;12.81;84.00
68439;SHT31;55421;51.600;5.718;2023-09-30T04:22:18;12.79;84.04
68439;SHT31;55421;51.600;5.718;2023-09-30T04:24:47;12.78;84.07
68439;SHT31;55421;51.600;5.718;2023-09-30T04:27:15;12.77;84.09
68439;SHT31;55421;51.600;5.718;2023-09-30T04:29:43;12.76;84.18
68439;SHT31;55421;51.600;5.718;2023-09-30T04:32:10;12.77;84.25
68439;SHT31;55421;51.600;5.718;2023-09-30T04:34:36;12.76;84.28
68439;SHT31;55421;51.600;5.718;2023-09-30T04:37:02;12.75;84.34
68439;SHT31;55421;51.600;5.718;2023-09-30T04:39:30;12.76;84.43
68439;SHT31;55421;51.600;5.718;2023-09-30T04:42:01;12.77;84.48
68439;SHT31;55421;51.600;5.718;2023-09-30T04:44:29;12.78;84.50
68439;SHT31;55421;51.600;5.718;2023-09-30T04:46:57;12.78;84.45
68439;SHT31;55421;51.600;5.718;2023-09-30T04:49:24;12.78;84.40
68439;SHT31;55421;51.600;5.718;2023-09-30T04:51:50;12.77;84.33
68439;SHT31;55421;51.600;5.718;2023-09-30T04:54:17;12.78;84.28
68439;SHT31;55421;51.600;5.718;2023-09-30T04:56:43;12.77;84.20
68439;SHT31;55421;51.600;5.718;2023-09-30T04:59:10;12.75;84.21
68439;SHT31;55421;51.600;5.718;2023-09-30T05:01:36;12.76;84.28
68439;SHT31;55421;51.600;5.718;2023-09-30T05:04:03;12.77;84.39
68439;SHT31;55421;51.600;5.718;2023-09-30T05:06:30;12.77;84.40
68439;SHT31;55421;51.600;5.718;2023-09-30T05:08:58;12.77;84.32
68439;SHT31;55421;51.600;5.718;2023-09-30T05:11:26;12.76;84.35
68439;SHT31;55421;51.600;5.718;2023-09-30T05:13:52;12.76;84.39
68439;SHT31;55421;51.600;5.718;2023-09-30T05:16:19;12.75;84.44
68439;SHT31;55421;51.600;5.718;2023-09-30T05:18:45;12.73;84.50
68439;SHT31;55421;51.600;5.718;2023-09-30T05:21:11;12.72;84.44
68439;SHT31;55421;51.600;5.718;2023-09-30T05:23:38;12.70;84.40
68439;SHT31;55421;51.600;5.718;2023-09-30T05:26:04;12.68;84.32
68439;SHT31;55421;51.600;5.718;2023-09-30T05:28:31;12.66;84.39
68439;SHT31;55421;51.600;5.718;2023-09-30T05:30:58;12.64;84.37
68439;SHT31;55421;51.600;5.718;2023-09-30T05:33:25;12.62;84.39
68439;SHT31;55421;51.600;5.718;2023-09-30T05:35:58;12.60;84.40
68439;SHT31;55421;51.600;5.718;2023-09-30T05:38:28;12.59;84.47
68439;SHT31;55421;51.600;5.718;2023-09-30T05:41:17;12.59;84.48
68439;SHT31;55421;51.600;5.718;2023-09-30T05:43:44;12.59;84.50
68439;SHT31;55421;51.600;5.718;2023-09-30T05:46:10;12.58;84.50
68439;SHT31;55421;51.600;5.718;2023-09-30T05:48:37;12.58;84.48
68439;SHT31;55421;51.600;5.718;2023-09-30T05:51:05;12.58;84.33
68439;SHT31;55421;51.600;5.718;2023-09-30T05:53:33;12.56;84.25
68439;SHT31;55421;51.600;5.718;2023-09-30T05:55:59;12.55;84.20
68439;SHT31;55421;51.600;5.718;2023-09-30T05:58:26;12.53;84.21
68439;SHT31;55421;51.600;5.718;2023-09-30T06:00:52;12.51;84.30
68439;SHT31;55421;51.600;5.718;2023-09-30T06:03:19;12.51;84.34
68439;SHT31;55421;51.600;5.718;2023-09-30T06:05:47;12.51;84.40
68439;SHT31;55421;51.600;5.718;2023-09-30T06:08:14;12.50;84.40
68439;SHT31;55421;51.600;5.718;2023-09-30T06:10:41;12.52;84.41
68439;SHT31;55421;51.600;5.718;2023-09-30T06:13:09;12.52;84.39
68439;SHT31;55421;51.600;5.718;2023-09-30T06:15:38;12.52;84.37
68439;SHT31;55421;51.600;5.718;2023-09-30T06:18:09;12.53;84.42
68439;SHT31;55421;51.600;5.718;2023-09-30T06:20:38;12.57;84.48
68439;SHT31;55421;51.600;5.718;2023-09-30T06:23:04;12.59;84.50
68439;SHT31;55421;51.600;5.718;2023-09-30T06:25:31;12.64;84.53
68439;SHT31;55421;51.600;5.718;2023-09-30T06:27:59;12.70;84.58
68439;SHT31;55421;51.600;5.718;2023-09-30T06:30:26;12.76;84.60
68439;SHT31;55421;51.600;5.718;2023-09-30T06:32:56;12.82;84.60
68439;SHT31;55421;51.600;5.718;2023-09-30T06:35:24;12.88;84.66
68439;SHT31;55421;51.600;5.718;2023-09-30T06:37:50;12.94;84.70
68439;SHT31;55421;51.600;5.718;2023-09-30T06:40:17;13.00;84.70
68439;SHT31;55421;51.600;5.718;2023-09-30T06:42:45;13.06;84.76
68439;SHT31;55421;51.600;5.718;2023-09-30T06:45:11;13.13;84.80
68439;SHT31;55421;51.600;5.718;2023-09-30T06:47:39;13.20;84.77
68439;SHT31;55421;51.600;5.718;2023-09-30T06:50:10;13.28;84.73
68439;SHT31;55421;51.600;5.718;2023-09-30T06:52:42;13.31;84.70
68439;SHT31;55421;51.600;5.718;2023-09-30T06:55:11;13.30;84.67
68439;SHT31;55421;51.600;5.718;2023-09-30T06:57:41;13.30;84.70
68439;SHT31;55421;51.600;5.718;2023-09-30T07:00:11;13.34;84.79
68439;SHT31;55421;51.600;5.718;2023-09-30T07:02:40;13.38;84.80
68439;SHT31;55421;51.600;5.718;2023-09-30T07:05:08;13.41;84.76
68439;SHT31;55421;51.600;5.718;2023-09-30T07:07:39;13.45;84.80
68439;SHT31;55421;51.600;5.718;2023-09-30T07:10:10;13.53;84.85
68439;SHT31;55421;51.600;5.718;2023-09-30T07:12:38;13.63;84.89
68439;SHT31;55421;51.600;5.718;2023-09-30T07:15:06;13.70;84.81
68439;SHT31;55421;51.600;5.718;2023-09-30T07:17:33;13.74;84.75
68439;SHT31;55421;51.600;5.718;2023-09-30T07:20:01;13.80;84.70
68439;SHT31;55421;51.600;5.718;2023-09-30T07:22:28;13.85;84.65
68439;SHT31;55421;51.600;5.718;2023-09-30T07:24:55;13.89;84.68
68439;SHT31;55421;51.600;5.718;2023-09-30T07:27:21;13.97;84.72
68439;SHT31;55421;51.600;5.718;2023-09-30T07:29:48;14.05;84.73
68439;SHT31;55421;51.600;5.718;2023-09-30T07:32:14;14.12;84.66
68439;SHT31;55421;51.600;5.718;2023-09-30T07:34:42;14.20;84.60
68439;SHT31;55421;51.600;5.718;2023-09-30T07:37:09;14.26;84.60
68439;SHT31;55421;51.600;5.718;2023-09-30T07:39:36;14.32;84.55
68439;SHT31;55421;51.600;5.718;2023-09-30T07:42:03;14.39;84.50
68439;SHT31;55421;51.600;5.718;2023-09-30T07:44:30;14.47;84.51
68439;SHT31;55421;51.600;5.718;2023-09-30T07:46:58;14.57;84.51
68439;SHT31;55421;51.600;5.718;2023-09-30T07:49:25;14.67;84.45
68439;SHT31;55421;51.600;5.718;2023-09-30T07:51:51;14.78;84.40
68439;SHT31;55421;51.600;5.718;2023-09-30T07:54:18;14.87;84.39
68439;SHT31;55421;51.600;5.718;2023-09-30T07:56:44;14.96;84.32
68439;SHT31;55421;51.600;5.718;2023-09-30T07:59:11;15.02;84.30
68439;SHT31;55421;51.600;5.718;2023-09-30T08:01:37;15.09;84.29
68439;SHT31;55421;51.600;5.718;2023-09-30T08:04:04;15.14;84.29
68439;SHT31;55421;51.600;5.718;2023-09-30T08:06:30;15.21;84.25
68439;SHT31;55421;51.600;5.718;2023-09-30T08:08:58;15.31;84.29
68439;SHT31;55421;51.600;5.718;2023-09-30T08:11:24;15.42;84.23
68439;SHT31;55421;51.600;5.718;2023-09-30T08:13:56;15.53;84.07
68439;SHT31;55421;51.600;5.718;2023-09-30T08:16:25;15.59;83.93
68439;SHT31;55421;51.600;5.718;2023-09-30T08:18:51;15.64;83.90
68439;SHT31;55421;51.600;5.718;2023-09-30T08:21:18;15.65;83.80
68439;SHT31;55421;51.600;5.718;2023-09-30T08:23:44;15.70;83.75
68439;SHT31;55421;51.600;5.718;2023-09-30T08:26:11;15.75;83.78
68439;SHT31;55421;51.600;5.718;2023-09-30T08:28:37;15.81;83.80
68439;SHT31;55421;51.600;5.718;2023-09-30T08:31:04;15.89;83.80
68439;SHT31;55421;51.600;5.718;2023-09-30T08:33:32;15.97;83.80
68439;SHT31;55421;51.600;5.718;2023-09-30T08:36:02;16.04;83.79
68439;SHT31;55421;51.600;5.718;2023-09-30T08:38:36;16.14;83.70
68439;SHT31;55421;51.600;5.718;2023-09-30T08:41:05;16.23;83.60
68439;SHT31;55421;51.600;5.718;2023-09-30T08:43:36;16.30;83.49
68439;SHT31;55421;51.600;5.718;2023-09-30T08:46:05;16.37;83.37
68439;SHT31;55421;51.600;5.718;2023-09-30T08:48:32;16.46;83.28
68439;SHT31;55421;51.600;5.718;2023-09-30T08:51:00;16.53;83.15
68439;SHT31;55421;51.600;5.718;2023-09-30T08:53:28;16.58;82.95
68439;SHT31;55421;51.600;5.718;2023-09-30T08:55:56;16.62;82.81
68439;SHT31;55421;51.600;5.718;2023-09-30T08:58:26;16.67;82.80
68439;SHT31;55421;51.600;5.718;2023-09-30T09:00:55;16.76;82.82
68439;SHT31;55421;51.600;5.718;2023-09-30T09:03:23;16.84;82.66
68439;SHT31;55421;51.600;5.718;2023-09-30T09:05:53;16.92;82.63
68439;SHT31;55421;51.600;5.718;2023-09-30T09:08:22;17.01;82.63
68439;SHT31;55421;51.600;5.718;2023-09-30T09:13:26;17.12;81.99
68439;SHT31;55421;51.600;5.718;2023-09-30T09:16:06;17.16;81.78
68439;SHT31;55421;51.600;5.718;2023-09-30T09:18:34;17.21;81.60
68439;SHT31;55421;51.600;5.718;2023-09-30T09:21:12;17.28;81.64
68439;SHT31;55421;51.600;5.718;2023-09-30T09:23:49;17.37;81.61
68439;SHT31;55421;51.600;5.718;2023-09-30T09:28:44;17.53;81.41
68439;SHT31;55421;51.600;5.718;2023-09-30T09:31:20;17.63;81.11
68439;SHT31;55421;51.600;5.718;2023-09-30T09:33:55;17.67;80.53
68439;SHT31;55421;51.600;5.718;2023-09-30T09:36:22;17.70;80.16
68439;SHT31;55421;51.600;5.718;2023-09-30T09:39:06;17.75;80.03
68439;SHT31;55421;51.600;5.718;2023-09-30T09:41:37;17.83;79.87
68439;SHT31;55421;51.600;5.718;2023-09-30T09:44:19;17.90;79.67
68439;SHT31;55421;51.600;5.718;2023-09-30T09:46:49;17.95;79.16
68439;SHT31;55421;51.600;5.718;2023-09-30T09:49:17;18.01;79.06
68439;SHT31;55421;51.600;5.718;2023-09-30T09:51:48;18.08;79.12
68439;SHT31;55421;51.600;5.718;2023-09-30T09:54:16;18.15;78.59
68439;SHT31;55421;51.600;5.718;2023-09-30T09:56:46;18.20;78.31
68439;SHT31;55421;51.600;5.718;2023-09-30T09:59:15;18.23;77.74
68439;SHT31;55421;51.600;5.718;2023-09-30T10:01:42;18.25;77.50
68439;SHT31;55421;51.600;5.718;2023-09-30T10:04:12;18.27;77.38
68439;SHT31;55421;51.600;5.718;2023-09-30T10:06:41;18.34;77.18
68439;SHT31;55421;51.600;5.718;2023-09-30T10:09:14;18.38;77.09
68439;SHT31;55421;51.600;5.718;2023-09-30T10:11:43;18.46;76.96
68439;SHT31;55421;51.600;5.718;2023-09-30T10:14:31;18.55;76.88
68439;SHT31;55421;51.600;5.718;2023-09-30T10:16:59;18.65;76.81
68439;SHT31;55421;51.600;5.718;2023-09-30T10:19:26;18.76;76.79
68439;SHT31;55421;51.600;5.718;2023-09-30T10:24:43;18.94;76.00
68439;SHT31;55421;51.600;5.718;2023-09-30T10:29:49;19.10;74.69
68439;SHT31;55421;51.600;5.718;2023-09-30T10:35:19;19.11;73.57
68439;SHT31;55421;51.600;5.718;2023-09-30T10:40:51;19.13;73.50
68439;SHT31;55421;51.600;5.718;2023-09-30T10:43:31;19.18;73.37
68439;SHT31;55421;51.600;5.718;2023-09-30T10:46:48;19.24;73.19
68439;SHT31;55421;51.600;5.718;2023-09-30T10:48:55;19.29;72.99
68439;SHT31;55421;51.600;5.718;2023-09-30T10:51:23;19.32;73.00
68439;SHT31;55421;51.600;5.718;2023-09-30T10:53:51;19.34;72.88
68439;SHT31;55421;51.600;5.718;2023-09-30T10:56:23;19.36;72.75
68439;SHT31;55421;51.600;5.718;2023-09-30T10:58:58;19.39;72.31
68439;SHT31;55421;51.600;5.718;2023-09-30T11:01:25;19.34;71.99
68439;SHT31;55421;51.600;5.718;2023-09-30T11:04:01;19.41;71.70
68439;SHT31;55421;51.600;5.718;2023-09-30T11:06:31;19.52;71.70
68439;SHT31;55421;51.600;5.718;2023-09-30T11:08:58;19.66;71.22
68439;SHT31;55421;51.600;5.718;2023-09-30T11:11:37;19.77;70.96
68439;SHT31;55421;51.600;5.718;2023-09-30T11:14:18;19.89;70.94
68439;SHT31;55421;51.600;5.718;2023-09-30T11:16:55;20.01;70.13
68439;SHT31;55421;51.600;5.718;2023-09-30T11:19:36;20.06;69.95
68439;SHT31;55421;51.600;5.718;2023-09-30T11:22:13;20.13;69.66
68439;SHT31;55421;51.600;5.718;2023-09-30T11:24:41;20.14;69.22
68439;SHT31;55421;51.600;5.718;2023-09-30T11:27:07;20.19;69.28
68439;SHT31;55421;51.600;5.718;2023-09-30T11:29:35;20.26;69.24
68439;SHT31;55421;51.600;5.718;2023-09-30T11:32:02;20.29;69.04
68439;SHT31;55421;51.600;5.718;2023-09-30T11:34:33;20.33;69.06
68439;SHT31;55421;51.600;5.718;2023-09-30T11:37:02;20.36;68.19
68439;SHT31;55421;51.600;5.718;2023-09-30T11:39:29;20.36;67.91
68439;SHT31;55421;51.600;5.718;2023-09-30T11:41:57;20.40;68.06
68439;SHT31;55421;51.600;5.718;2023-09-30T11:44:24;20.47;68.04
68439;SHT31;55421;51.600;5.718;2023-09-30T11:46:59;20.54;67.94
68439;SHT31;55421;51.600;5.718;2023-09-30T11:51:59;20.53;66.46
68439;SHT31;55421;51.600;5.718;2023-09-30T11:54:31;20.54;66.58
68439;SHT31;55421;51.600;5.718;2023-09-30T11:57:07;20.55;66.34
68439;SHT31;55421;51.600;5.718;2023-09-30T11:59:38;20.53;66.15
68439;SHT31;55421;51.600;5.718;2023-09-30T12:02:11;20.49;65.20
68439;SHT31;55421;51.600;5.718;2023-09-30T12:04:41;20.39;64.41
68439;SHT31;55421;51.600;5.718;2023-09-30T12:07:10;20.35;64.77
68439;SHT31;55421;51.600;5.718;2023-09-30T12:09:37;20.34;65.24
68439;SHT31;55421;51.600;5.718;2023-09-30T12:12:05;20.29;64.54
68439;SHT31;55421;51.600;5.718;2023-09-30T12:14:35;20.24;64.15
68439;SHT31;55421;51.600;5.718;2023-09-30T12:17:02;20.24;64.65
68439;SHT31;55421;51.600;5.718;2023-09-30T12:19:29;20.25;64.27
68439;SHT31;55421;51.600;5.718;2023-09-30T12:21:55;20.24;63.86
68439;SHT31;55421;51.600;5.718;2023-09-30T12:24:22;20.24;64.28
68439;SHT31;55421;51.600;5.718;2023-09-30T12:26:50;20.25;64.45
68439;SHT31;55421;51.600;5.718;2023-09-30T12:29:19;20.25;64.41
68439;SHT31;55421;51.600;5.718;2023-09-30T12:31:48;20.25;64.73
68439;SHT31;55421;51.600;5.718;2023-09-30T12:34:16;20.23;64.46
68439;SHT31;55421;51.600;5.718;2023-09-30T12:36:43;20.15;64.56
68439;SHT31;55421;51.600;5.718;2023-09-30T12:39:10;20.08;65.16
68439;SHT31;55421;51.600;5.718;2023-09-30T12:41:41;20.07;65.44
68439;SHT31;55421;51.600;5.718;2023-09-30T12:44:09;20.09;65.34
68439;SHT31;55421;51.600;5.718;2023-09-30T12:46:37;20.09;65.33
68439;SHT31;55421;51.600;5.718;2023-09-30T12:49:05;20.09;64.92
68439;SHT31;55421;51.600;5.718;2023-09-30T12:51:33;20.08;64.18
68439;SHT31;55421;51.600;5.718;2023-09-30T12:54:02;20.09;63.74
68439;SHT31;55421;51.600;5.718;2023-09-30T12:56:29;20.10;63.80
68439;SHT31;55421;51.600;5.718;2023-09-30T12:58:57;20.07;62.84
68439;SHT31;55421;51.600;5.718;2023-09-30T13:01:25;20.05;63.12
68439;SHT31;55421;51.600;5.718;2023-09-30T13:03:52;20.01;62.61
68439;SHT31;55421;51.600;5.718;2023-09-30T13:06:18;19.97;62.95
68439;SHT31;55421;51.600;5.718;2023-09-30T13:08:45;19.98;63.16
68439;SHT31;55421;51.600;5.718;2023-09-30T13:11:13;19.99;63.31
68439;SHT31;55421;51.600;5.718;2023-09-30T13:13:40;19.98;63.19
68439;SHT31;55421;51.600;5.718;2023-09-30T13:16:09;19.93;62.99
68439;SHT31;55421;51.600;5.718;2023-09-30T13:18:37;19.90;63.61
68439;SHT31;55421;51.600;5.718;2023-09-30T13:21:04;19.84;64.18
68439;SHT31;55421;51.600;5.718;2023-09-30T13:23:34;19.79;63.86
68439;SHT31;55421;51.600;5.718;2023-09-30T13:26:00;19.74;64.11
68439;SHT31;55421;51.600;5.718;2023-09-30T13:28:27;19.70;64.21
68439;SHT31;55421;51.600;5.718;2023-09-30T13:30:54;19.70;64.51
68439;SHT31;55421;51.600;5.718;2023-09-30T13:33:21;19.69;64.47
68439;SHT31;55421;51.600;5.718;2023-09-30T13:35:47;19.66;64.39
68439;SHT31;55421;51.600;5.718;2023-09-30T13:38:14;19.63;64.46
68439;SHT31;55421;51.600;5.718;2023-09-30T13:40:42;19.59;64.21
68439;SHT31;55421;51.600;5.718;2023-09-30T13:43:08;19.55;63.92
68439;SHT31;55421;51.600;5.718;2023-09-30T13:45:35;19.52;64.26
68439;SHT31;55421;51.600;5.718;2023-09-30T13:48:03;19.50;64.18
68439;SHT31;55421;51.600;5.718;2023-09-30T13:50:30;19.48;64.50
68439;SHT31;55421;51.600;5.718;2023-09-30T13:52:57;19.47;65.12
68439;SHT31;55421;51.600;5.718;2023-09-30T13:55:26;19.46;64.80
68439;SHT31;55421;51.600;5.718;2023-09-30T13:57:53;19.44;64.64
68439;SHT31;55421;51.600;5.718;2023-09-30T14:00:19;19.43;64.49
68439;SHT31;55421;51.600;5.718;2023-09-30T14:02:47;19.42;64.36
68439;SHT31;55421;51.600;5.718;2023-09-30T14:05:14;19.40;64.21
68439;SHT31;55421;51.600;5.718;2023-09-30T14:07:40;19.38;64.19
68439;SHT31;55421;51.600;5.718;2023-09-30T14:10:07;19.36;63.92
68439;SHT31;55421;51.600;5.718;2023-09-30T14:12:36;19.34;64.05
68439;SHT31;55421;51.600;5.718;2023-09-30T14:15:05;19.33;64.18
68439;SHT31;55421;51.600;5.718;2023-09-30T14:17:32;19.32;64.26
68439;SHT31;55421;51.600;5.718;2023-09-30T14:20:01;19.33;64.43
68439;SHT31;55421;51.600;5.718;2023-09-30T14:22:27;19.32;64.52
68439;SHT31;55421;51.600;5.718;2023-09-30T14:24:54;19.32;64.33
68439;SHT31;55421;51.600;5.718;2023-09-30T14:27:20;19.32;64.46
68439;SHT31;55421;51.600;5.718;2023-09-30T14:29:47;19.32;64.79
68439;SHT31;55421;51.600;5.718;2023-09-30T14:32:14;19.32;65.00
68439;SHT31;55421;51.600;5.718;2023-09-30T14:34:41;19.31;65.18
68439;SHT31;55421;51.600;5.718;2023-09-30T14:37:07;19.28;65.35
68439;SHT31;55421;51.600;5.718;2023-09-30T14:39:34;19.27;65.62
68439;SHT31;55421;51.600;5.718;2023-09-30T14:42:00;19.26;65.59
68439;SHT31;55421;51.600;5.718;2023-09-30T14:44:27;19.25;65.51
68439;SHT31;55421;51.600;5.718;2023-09-30T14:46:53;19.21;65.52
68439;SHT31;55421;51.600;5.718;2023-09-30T14:49:22;19.20;65.54
68439;SHT31;55421;51.600;5.718;2023-09-30T14:51:48;19.18;65.54
68439;SHT31;55421;51.600;5.718;2023-09-30T14:54:14;19.17;65.24
68439;SHT31;55421;51.600;5.718;2023-09-30T14:56:41;19.17;65.26
68439;SHT31;55421;51.600;5.718;2023-09-30T14:59:07;19.17;65.31
68439;SHT31;55421;51.600;5.718;2023-09-30T15:01:34;19.18;65.36
68439;SHT31;55421;51.600;5.718;2023-09-30T15:04:01;19.17;65.39
68439;SHT31;55421;51.600;5.718;2023-09-30T15:06:27;19.17;65.32
68439;SHT31;55421;51.600;5.718;2023-09-30T15:08:54;19.16;65.40
68439;SHT31;55421;51.600;5.718;2023-09-30T15:11:21;19.14;65.43
68439;SHT31;55421;51.600;5.718;2023-09-30T15:13:49;19.13;65.42
68439;SHT31;55421;51.600;5.718;2023-09-30T15:16:17;19.11;65.47
68439;SHT31;55421;51.600;5.718;2023-09-30T15:18:46;19.12;65.56
68439;SHT31;55421;51.600;5.718;2023-09-30T15:21:13;19.13;65.96
68439;SHT31;55421;51.600;5.718;2023-09-30T15:23:42;19.15;66.15
68439;SHT31;55421;51.600;5.718;2023-09-30T15:26:09;19.16;66.39
68439;SHT31;55421;51.600;5.718;2023-09-30T15:28:36;19.19;66.35
68439;SHT31;55421;51.600;5.718;2023-09-30T15:31:04;19.20;66.27
68439;SHT31;55421;51.600;5.718;2023-09-30T15:33:31;19.21;66.18
68439;SHT31;55421;51.600;5.718;2023-09-30T15:35:58;19.19;66.05
68439;SHT31;55421;51.600;5.718;2023-09-30T15:38:26;19.17;66.06
68439;SHT31;55421;51.600;5.718;2023-09-30T15:40:53;19.13;66.06
68439;SHT31;55421;51.600;5.718;2023-09-30T15:43:26;19.10;66.61
68439;SHT31;55421;51.600;5.718;2023-09-30T15:45:53;19.08;66.92
68439;SHT31;55421;51.600;5.718;2023-09-30T15:48:19;19.03;66.65
68439;SHT31;55421;51.600;5.718;2023-09-30T15:50:46;18.97;66.77
68439;SHT31;55421;51.600;5.718;2023-09-30T15:53:13;18.92;66.95
68439;SHT31;55421;51.600;5.718;2023-09-30T15:55:40;18.87;66.97